sensor_id;sensor_type;location;lat;lon;timestamp;P1;durP1;ratioP1;P2;durP2;ratioP2
2257;SDS011;1136;51.574;7.706;2023-09-19T00:02:07;2.73;;;2.57;;
2257;SDS011;1136;51.574;7.706;2023-09-19T00:05:15;3.00;;;2.70;;
2257;SDS011;1136;51.574;7.706;2023-09-19T00:08:19;4.73;;;2.80;;
2257;SDS011;1136;51.574;7.706;2023-09-19T00:11:28;3.80;;;2.87;;
2257;SDS011;1136;51.574;7.706;2023-09-19T00:14:36;4.60;;;2.70;;
2257;SDS011;1136;51.574;7.706;2023-09-19T00:17:41;7.00;;;3.53;;
2257;SDS011;1136;51.574;7.706;2023-09-19T00:20:47;3.30;;;2.23;;
2257;SDS011;1136;51.574;7.706;2023-09-19T00:23:56;4.07;;;2.73;;
2257;SDS011;1136;51.574;7.706;2023-09-19T00:27:01;7.87;;;2.40;;
2257;SDS011;1136;51.574;7.706;2023-09-19T00:30:06;4.90;;;2.73;;
2257;SDS011;1136;51.574;7.706;2023-09-19T00:33:18;4.67;;;2.73;;
2257;SDS011;1136;51.574;7.706;2023-09-19T00:36:23;5.53;;;2.53;;
2257;SDS011;1136;51.574;7.706;2023-09-19T00:39:27;10.40;;;3.00;;
2257;SDS011;1136;51.574;7.706;2023-09-19T00:42:31;4.97;;;2.53;;
2257;SDS011;1136;51.574;7.706;2023-09-19T00:45:37;2.83;;;2.20;;
2257;SDS011;1136;51.574;7.706;2023-09-19T00:48:42;5.90;;;3.10;;
2257;SDS011;1136;51.574;7.706;2023-09-19T00:51:49;3.33;;;2.50;;
2257;SDS011;1136;51.574;7.706;2023-09-19T00:54:54;4.90;;;2.53;;
2257;SDS011;1136;51.574;7.706;2023-09-19T00:57:58;6.20;;;3.00;;
2257;SDS011;1136;51.574;7.706;2023-09-19T01:01:02;3.80;;;2.70;;
2257;SDS011;1136;51.574;7.706;2023-09-19T01:04:11;4.33;;;3.47;;
2257;SDS011;1136;51.574;7.706;2023-09-19T01:07:16;4.40;;;3.10;;
2257;SDS011;1136;51.574;7.706;2023-09-19T01:10:20;6.67;;;2.90;;
2257;SDS011;1136;51.574;7.706;2023-09-19T01:16:45;8.43;;;2.60;;
2257;SDS011;1136;51.574;7.706;2023-09-19T01:26:56;5.20;;;2.53;;
2257;SDS011;1136;51.574;7.706;2023-09-19T01:30:09;9.37;;;2.67;;
2257;SDS011;1136;51.574;7.706;2023-09-19T01:33:15;7.73;;;2.73;;
2257;SDS011;1136;51.574;7.706;2023-09-19T01:36:19;7.00;;;2.23;;
2257;SDS011;1136;51.574;7.706;2023-09-19T01:39:23;5.10;;;2.47;;
2257;SDS011;1136;51.574;7.706;2023-09-19T01:49:13;7.40;;;2.77;;
2257;SDS011;1136;51.574;7.706;2023-09-19T01:52:25;6.03;;;2.90;;
2257;SDS011;1136;51.574;7.706;2023-09-19T01:55:37;7.30;;;2.87;;
2257;SDS011;1136;51.574;7.706;2023-09-19T01:58:48;8.97;;;2.40;;
2257;SDS011;1136;51.574;7.706;2023-09-19T02:01:53;6.10;;;2.97;;
2257;SDS011;1136;51.574;7.706;2023-09-19T02:04:58;12.87;;;2.70;;
2257;SDS011;1136;51.574;7.706;2023-09-19T02:08:03;4.90;;;2.53;;
2257;SDS011;1136;51.574;7.706;2023-09-19T02:11:07;9.97;;;3.63;;
2257;SDS011;1136;51.574;7.706;2023-09-19T02:14:11;8.13;;;3.00;;
2257;SDS011;1136;51.574;7.706;2023-09-19T02:17:15;5.10;;;2.60;;
2257;SDS011;1136;51.574;7.706;2023-09-19T02:20:21;5.87;;;2.50;;
2257;SDS011;1136;51.574;7.706;2023-09-19T02:23:25;4.07;;;2.43;;
2257;SDS011;1136;51.574;7.706;2023-09-19T02:26:30;7.63;;;3.27;;
2257;SDS011;1136;51.574;7.706;2023-09-19T02:29:34;4.40;;;2.30;;
2257;SDS011;1136;51.574;7.706;2023-09-19T02:32:38;11.47;;;3.30;;
2257;SDS011;1136;51.574;7.706;2023-09-19T02:35:42;5.70;;;3.07;;
2257;SDS011;1136;51.574;7.706;2023-09-19T02:38:47;5.93;;;3.10;;
2257;SDS011;1136;51.574;7.706;2023-09-19T02:41:51;8.23;;;2.87;;
2257;SDS011;1136;51.574;7.706;2023-09-19T02:44:55;11.30;;;3.40;;
2257;SDS011;1136;51.574;7.706;2023-09-19T02:48:00;8.10;;;3.23;;
2257;SDS011;1136;51.574;7.706;2023-09-19T02:51:06;6.17;;;3.03;;
2257;SDS011;1136;51.574;7.706;2023-09-19T02:54:10;7.60;;;3.20;;
2257;SDS011;1136;51.574;7.706;2023-09-19T02:57:15;6.80;;;2.73;;
2257;SDS011;1136;51.574;7.706;2023-09-19T03:00:21;8.10;;;2.93;;
2257;SDS011;1136;51.574;7.706;2023-09-19T03:03:26;11.60;;;3.80;;
2257;SDS011;1136;51.574;7.706;2023-09-19T03:06:32;8.03;;;3.40;;
2257;SDS011;1136;51.574;7.706;2023-09-19T03:09:36;4.37;;;2.40;;
2257;SDS011;1136;51.574;7.706;2023-09-19T03:12:40;4.00;;;2.63;;
2257;SDS011;1136;51.574;7.706;2023-09-19T03:15:44;9.20;;;2.80;;
2257;SDS011;1136;51.574;7.706;2023-09-19T03:18:51;9.20;;;3.10;;
2257;SDS011;1136;51.574;7.706;2023-09-19T03:21:55;9.07;;;3.07;;
2257;SDS011;1136;51.574;7.706;2023-09-19T03:25:01;8.90;;;3.80;;
2257;SDS011;1136;51.574;7.706;2023-09-19T03:28:05;9.73;;;2.90;;
2257;SDS011;1136;51.574;7.706;2023-09-19T03:31:10;9.37;;;3.10;;
2257;SDS011;1136;51.574;7.706;2023-09-19T03:34:15;5.77;;;3.03;;
2257;SDS011;1136;51.574;7.706;2023-09-19T03:37:20;5.10;;;2.70;;
2257;SDS011;1136;51.574;7.706;2023-09-19T03:40:24;8.77;;;3.10;;
2257;SDS011;1136;51.574;7.706;2023-09-19T03:43:29;12.73;;;3.53;;
2257;SDS011;1136;51.574;7.706;2023-09-19T03:46:33;4.53;;;2.40;;
2257;SDS011;1136;51.574;7.706;2023-09-19T03:49:39;7.93;;;3.50;;
2257;SDS011;1136;51.574;7.706;2023-09-19T03:52:44;12.67;;;3.00;;
2257;SDS011;1136;51.574;7.706;2023-09-19T03:55:48;5.57;;;2.43;;
2257;SDS011;1136;51.574;7.706;2023-09-19T03:58:52;8.10;;;3.03;;
2257;SDS011;1136;51.574;7.706;2023-09-19T04:01:56;7.00;;;2.50;;
2257;SDS011;1136;51.574;7.706;2023-09-19T04:05:02;11.90;;;2.83;;
2257;SDS011;1136;51.574;7.706;2023-09-19T04:08:07;8.33;;;2.80;;
2257;SDS011;1136;51.574;7.706;2023-09-19T04:11:11;8.33;;;2.73;;
2257;SDS011;1136;51.574;7.706;2023-09-19T04:14:15;6.53;;;3.10;;
2257;SDS011;1136;51.574;7.706;2023-09-19T04:17:20;5.97;;;3.33;;
2257;SDS011;1136;51.574;7.706;2023-09-19T04:20:24;7.87;;;2.53;;
2257;SDS011;1136;51.574;7.706;2023-09-19T04:23:28;6.47;;;2.40;;
2257;SDS011;1136;51.574;7.706;2023-09-19T04:26:32;5.93;;;2.80;;
2257;SDS011;1136;51.574;7.706;2023-09-19T04:29:36;6.87;;;2.47;;
2257;SDS011;1136;51.574;7.706;2023-09-19T04:32:41;5.67;;;2.33;;
2257;SDS011;1136;51.574;7.706;2023-09-19T04:35:48;4.20;;;2.40;;
2257;SDS011;1136;51.574;7.706;2023-09-19T04:38:53;7.43;;;2.70;;
2257;SDS011;1136;51.574;7.706;2023-09-19T04:41:57;8.50;;;2.10;;
2257;SDS011;1136;51.574;7.706;2023-09-19T04:45:02;5.10;;;2.80;;
2257;SDS011;1136;51.574;7.706;2023-09-19T04:48:07;6.57;;;3.27;;
2257;SDS011;1136;51.574;7.706;2023-09-19T04:51:12;14.00;;;4.33;;
2257;SDS011;1136;51.574;7.706;2023-09-19T04:54:17;7.17;;;2.93;;
2257;SDS011;1136;51.574;7.706;2023-09-19T04:57:22;6.70;;;2.90;;
2257;SDS011;1136;51.574;7.706;2023-09-19T05:00:27;5.83;;;2.70;;
2257;SDS011;1136;51.574;7.706;2023-09-19T05:03:34;7.60;;;3.10;;
2257;SDS011;1136;51.574;7.706;2023-09-19T05:06:39;6.97;;;2.83;;
2257;SDS011;1136;51.574;7.706;2023-09-19T05:09:42;12.57;;;3.10;;
2257;SDS011;1136;51.574;7.706;2023-09-19T05:12:47;9.90;;;3.20;;
2257;SDS011;1136;51.574;7.706;2023-09-19T05:15:52;5.30;;;2.30;;
2257;SDS011;1136;51.574;7.706;2023-09-19T05:18:57;7.73;;;2.77;;
2257;SDS011;1136;51.574;7.706;2023-09-19T05:22:03;8.70;;;3.20;;
2257;SDS011;1136;51.574;7.706;2023-09-19T05:25:11;7.43;;;3.20;;
2257;SDS011;1136;51.574;7.706;2023-09-19T05:28:20;7.97;;;2.70;;
2257;SDS011;1136;51.574;7.706;2023-09-19T05:31:24;12.13;;;3.00;;
2257;SDS011;1136;51.574;7.706;2023-09-19T05:34:30;10.67;;;2.60;;
2257;SDS011;1136;51.574;7.706;2023-09-19T05:37:34;13.27;;;4.57;;
2257;SDS011;1136;51.574;7.706;2023-09-19T05:40:38;7.33;;;2.73;;
2257;SDS011;1136;51.574;7.706;2023-09-19T05:43:46;6.10;;;2.60;;
2257;SDS011;1136;51.574;7.706;2023-09-19T05:46:54;8.60;;;2.63;;
2257;SDS011;1136;51.574;7.706;2023-09-19T05:50:00;7.13;;;3.37;;
2257;SDS011;1136;51.574;7.706;2023-09-19T05:53:05;14.23;;;3.53;;
2257;SDS011;1136;51.574;7.706;2023-09-19T05:56:10;7.13;;;2.30;;
2257;SDS011;1136;51.574;7.706;2023-09-19T05:59:14;6.77;;;3.00;;
2257;SDS011;1136;51.574;7.706;2023-09-19T06:02:21;8.70;;;2.80;;
2257;SDS011;1136;51.574;7.706;2023-09-19T06:05:26;3.63;;;2.23;;
2257;SDS011;1136;51.574;7.706;2023-09-19T06:08:31;10.20;;;3.17;;
2257;SDS011;1136;51.574;7.706;2023-09-19T06:11:35;7.30;;;3.60;;
2257;SDS011;1136;51.574;7.706;2023-09-19T06:14:39;5.23;;;3.30;;
2257;SDS011;1136;51.574;7.706;2023-09-19T06:17:48;8.03;;;2.57;;
2257;SDS011;1136;51.574;7.706;2023-09-19T06:20:52;8.20;;;3.50;;
2257;SDS011;1136;51.574;7.706;2023-09-19T06:23:57;6.57;;;3.20;;
2257;SDS011;1136;51.574;7.706;2023-09-19T06:27:01;9.10;;;3.33;;
2257;SDS011;1136;51.574;7.706;2023-09-19T06:30:08;8.33;;;2.43;;
2257;SDS011;1136;51.574;7.706;2023-09-19T06:33:13;8.53;;;2.50;;
2257;SDS011;1136;51.574;7.706;2023-09-19T06:36:22;9.40;;;2.83;;
2257;SDS011;1136;51.574;7.706;2023-09-19T06:39:26;9.33;;;3.57;;
2257;SDS011;1136;51.574;7.706;2023-09-19T06:42:31;8.80;;;3.07;;
2257;SDS011;1136;51.574;7.706;2023-09-19T06:45:35;6.63;;;2.97;;
2257;SDS011;1136;51.574;7.706;2023-09-19T06:48:39;7.70;;;3.23;;
2257;SDS011;1136;51.574;7.706;2023-09-19T06:51:43;7.60;;;3.00;;
2257;SDS011;1136;51.574;7.706;2023-09-19T06:54:48;12.87;;;3.20;;
2257;SDS011;1136;51.574;7.706;2023-09-19T06:57:54;8.27;;;2.97;;
2257;SDS011;1136;51.574;7.706;2023-09-19T07:00:58;10.60;;;3.80;;
2257;SDS011;1136;51.574;7.706;2023-09-19T07:04:02;10.43;;;3.10;;
2257;SDS011;1136;51.574;7.706;2023-09-19T07:07:07;8.03;;;3.60;;
2257;SDS011;1136;51.574;7.706;2023-09-19T07:10:12;7.43;;;3.20;;
2257;SDS011;1136;51.574;7.706;2023-09-19T07:13:17;9.10;;;2.80;;
2257;SDS011;1136;51.574;7.706;2023-09-19T07:16:22;11.53;;;3.40;;
2257;SDS011;1136;51.574;7.706;2023-09-19T07:19:33;11.07;;;4.00;;
2257;SDS011;1136;51.574;7.706;2023-09-19T07:22:37;9.43;;;2.70;;
2257;SDS011;1136;51.574;7.706;2023-09-19T07:25:43;5.50;;;3.00;;
2257;SDS011;1136;51.574;7.706;2023-09-19T07:28:48;10.27;;;2.80;;
2257;SDS011;1136;51.574;7.706;2023-09-19T07:31:52;8.00;;;3.30;;
2257;SDS011;1136;51.574;7.706;2023-09-19T07:34:56;5.67;;;2.70;;
2257;SDS011;1136;51.574;7.706;2023-09-19T07:38:01;5.80;;;2.30;;
2257;SDS011;1136;51.574;7.706;2023-09-19T07:41:05;8.20;;;4.00;;
2257;SDS011;1136;51.574;7.706;2023-09-19T07:44:09;9.37;;;2.90;;
2257;SDS011;1136;51.574;7.706;2023-09-19T07:47:14;9.23;;;3.13;;
2257;SDS011;1136;51.574;7.706;2023-09-19T07:50:18;7.90;;;2.90;;
2257;SDS011;1136;51.574;7.706;2023-09-19T07:53:23;7.23;;;2.70;;
2257;SDS011;1136;51.574;7.706;2023-09-19T07:56:27;13.13;;;3.73;;
2257;SDS011;1136;51.574;7.706;2023-09-19T07:59:32;8.60;;;3.93;;
2257;SDS011;1136;51.574;7.706;2023-09-19T08:02:37;8.40;;;2.90;;
2257;SDS011;1136;51.574;7.706;2023-09-19T08:05:44;6.93;;;3.20;;
2257;SDS011;1136;51.574;7.706;2023-09-19T08:08:52;9.40;;;2.60;;
2257;SDS011;1136;51.574;7.706;2023-09-19T08:11:57;10.20;;;4.10;;
2257;SDS011;1136;51.574;7.706;2023-09-19T08:15:02;5.90;;;3.37;;
2257;SDS011;1136;51.574;7.706;2023-09-19T08:18:07;8.60;;;2.80;;
2257;SDS011;1136;51.574;7.706;2023-09-19T08:21:16;10.40;;;4.30;;
2257;SDS011;1136;51.574;7.706;2023-09-19T08:24:20;8.17;;;3.00;;
2257;SDS011;1136;51.574;7.706;2023-09-19T08:27:24;7.00;;;3.30;;
2257;SDS011;1136;51.574;7.706;2023-09-19T08:30:31;9.60;;;3.57;;
2257;SDS011;1136;51.574;7.706;2023-09-19T08:33:39;5.70;;;2.80;;
2257;SDS011;1136;51.574;7.706;2023-09-19T08:36:44;7.57;;;2.90;;
2257;SDS011;1136;51.574;7.706;2023-09-19T08:39:49;13.27;;;4.20;;
2257;SDS011;1136;51.574;7.706;2023-09-19T08:42:54;9.87;;;3.50;;
2257;SDS011;1136;51.574;7.706;2023-09-19T08:46:06;7.90;;;3.07;;
2257;SDS011;1136;51.574;7.706;2023-09-19T08:52:46;6.87;;;2.87;;
2257;SDS011;1136;51.574;7.706;2023-09-19T08:55:55;7.50;;;4.20;;
2257;SDS011;1136;51.574;7.706;2023-09-19T08:59:05;11.10;;;3.33;;
2257;SDS011;1136;51.574;7.706;2023-09-19T09:02:15;8.37;;;2.90;;
2257;SDS011;1136;51.574;7.706;2023-09-19T09:05:20;8.80;;;3.23;;
2257;SDS011;1136;51.574;7.706;2023-09-19T09:08:27;7.80;;;3.93;;
2257;SDS011;1136;51.574;7.706;2023-09-19T09:11:35;6.53;;;3.50;;
2257;SDS011;1136;51.574;7.706;2023-09-19T09:14:47;9.63;;;4.57;;
2257;SDS011;1136;51.574;7.706;2023-09-19T09:17:54;6.80;;;3.40;;
2257;SDS011;1136;51.574;7.706;2023-09-19T09:20:58;6.40;;;3.20;;
2257;SDS011;1136;51.574;7.706;2023-09-19T09:27:38;7.60;;;3.07;;
2257;SDS011;1136;51.574;7.706;2023-09-19T09:30:44;13.57;;;3.60;;
2257;SDS011;1136;51.574;7.706;2023-09-19T09:33:52;12.73;;;3.77;;
2257;SDS011;1136;51.574;7.706;2023-09-19T09:37:00;7.40;;;2.90;;
2257;SDS011;1136;51.574;7.706;2023-09-19T09:40:04;9.00;;;3.20;;
2257;SDS011;1136;51.574;7.706;2023-09-19T09:43:30;5.33;;;3.37;;
2257;SDS011;1136;51.574;7.706;2023-09-19T09:46:42;6.40;;;2.83;;
2257;SDS011;1136;51.574;7.706;2023-09-19T09:49:56;8.23;;;2.27;;
2257;SDS011;1136;51.574;7.706;2023-09-19T09:56:24;5.33;;;2.40;;
2257;SDS011;1136;51.574;7.706;2023-09-19T10:02:54;5.57;;;2.77;;
2257;SDS011;1136;51.574;7.706;2023-09-19T10:05:58;4.30;;;2.73;;
2257;SDS011;1136;51.574;7.706;2023-09-19T10:09:09;6.87;;;2.57;;
2257;SDS011;1136;51.574;7.706;2023-09-19T10:12:24;6.30;;;2.77;;
2257;SDS011;1136;51.574;7.706;2023-09-19T10:15:32;7.13;;;3.43;;
2257;SDS011;1136;51.574;7.706;2023-09-19T10:18:36;7.93;;;3.10;;
2257;SDS011;1136;51.574;7.706;2023-09-19T10:21:43;9.40;;;3.00;;
2257;SDS011;1136;51.574;7.706;2023-09-19T10:24:48;4.20;;;2.87;;
2257;SDS011;1136;51.574;7.706;2023-09-19T10:28:06;10.93;;;3.10;;
2257;SDS011;1136;51.574;7.706;2023-09-19T10:31:18;4.37;;;2.47;;
2257;SDS011;1136;51.574;7.706;2023-09-19T10:34:23;7.73;;;2.97;;
2257;SDS011;1136;51.574;7.706;2023-09-19T10:37:29;4.90;;;2.60;;
2257;SDS011;1136;51.574;7.706;2023-09-19T10:40:36;8.07;;;3.10;;
2257;SDS011;1136;51.574;7.706;2023-09-19T10:43:44;7.80;;;3.50;;
2257;SDS011;1136;51.574;7.706;2023-09-19T10:46:51;5.90;;;2.90;;
2257;SDS011;1136;51.574;7.706;2023-09-19T10:49:58;3.47;;;2.37;;
2257;SDS011;1136;51.574;7.706;2023-09-19T10:53:03;9.50;;;3.30;;
2257;SDS011;1136;51.574;7.706;2023-09-19T10:56:14;5.47;;;2.50;;
2257;SDS011;1136;51.574;7.706;2023-09-19T10:59:36;3.40;;;2.60;;
2257;SDS011;1136;51.574;7.706;2023-09-19T11:02:43;4.33;;;2.20;;
2257;SDS011;1136;51.574;7.706;2023-09-19T11:09:07;4.10;;;2.77;;
2257;SDS011;1136;51.574;7.706;2023-09-19T11:16:22;5.43;;;3.10;;
2257;SDS011;1136;51.574;7.706;2023-09-19T11:19:04;5.00;;;2.80;;
2257;SDS011;1136;51.574;7.706;2023-09-19T11:22:13;12.00;;;3.80;;
2257;SDS011;1136;51.574;7.706;2023-09-19T11:28:36;8.40;;;3.30;;
2257;SDS011;1136;51.574;7.706;2023-09-19T11:31:43;5.07;;;2.90;;
2257;SDS011;1136;51.574;7.706;2023-09-19T11:34:49;5.80;;;2.47;;
2257;SDS011;1136;51.574;7.706;2023-09-19T11:41:36;8.17;;;3.93;;
2257;SDS011;1136;51.574;7.706;2023-09-19T11:47:30;3.43;;;2.77;;
2257;SDS011;1136;51.574;7.706;2023-09-19T11:50:36;5.77;;;3.03;;
2257;SDS011;1136;51.574;7.706;2023-09-19T11:53:47;6.97;;;2.90;;
2257;SDS011;1136;51.574;7.706;2023-09-19T11:56:53;3.37;;;2.60;;
2257;SDS011;1136;51.574;7.706;2023-09-19T11:59:58;4.80;;;2.90;;
2257;SDS011;1136;51.574;7.706;2023-09-19T12:03:08;4.50;;;2.60;;
2257;SDS011;1136;51.574;7.706;2023-09-19T12:06:14;6.33;;;2.70;;
2257;SDS011;1136;51.574;7.706;2023-09-19T12:09:20;5.70;;;2.70;;
2257;SDS011;1136;51.574;7.706;2023-09-19T12:12:25;3.40;;;2.40;;
2257;SDS011;1136;51.574;7.706;2023-09-19T12:15:39;7.40;;;3.20;;
2257;SDS011;1136;51.574;7.706;2023-09-19T12:18:46;5.43;;;3.10;;
2257;SDS011;1136;51.574;7.706;2023-09-19T12:21:57;3.83;;;2.13;;
2257;SDS011;1136;51.574;7.706;2023-09-19T12:25:06;5.93;;;2.63;;
2257;SDS011;1136;51.574;7.706;2023-09-19T12:28:11;4.43;;;2.70;;
2257;SDS011;1136;51.574;7.706;2023-09-19T12:31:18;6.07;;;2.57;;
2257;SDS011;1136;51.574;7.706;2023-09-19T12:34:27;5.60;;;2.43;;
2257;SDS011;1136;51.574;7.706;2023-09-19T12:37:33;3.80;;;2.40;;
2257;SDS011;1136;51.574;7.706;2023-09-19T12:40:39;5.10;;;2.90;;
2257;SDS011;1136;51.574;7.706;2023-09-19T12:43:46;5.23;;;2.30;;
2257;SDS011;1136;51.574;7.706;2023-09-19T12:46:51;5.03;;;2.70;;
2257;SDS011;1136;51.574;7.706;2023-09-19T12:50:09;3.93;;;1.97;;
2257;SDS011;1136;51.574;7.706;2023-09-19T12:53:26;8.50;;;3.00;;
2257;SDS011;1136;51.574;7.706;2023-09-19T12:56:40;5.10;;;2.70;;
2257;SDS011;1136;51.574;7.706;2023-09-19T12:59:54;4.47;;;3.03;;
2257;SDS011;1136;51.574;7.706;2023-09-19T13:06:34;5.27;;;2.60;;
2257;SDS011;1136;51.574;7.706;2023-09-19T13:10:01;4.80;;;2.60;;
2257;SDS011;1136;51.574;7.706;2023-09-19T13:13:26;10.37;;;2.50;;
2257;SDS011;1136;51.574;7.706;2023-09-19T13:16:32;3.00;;;1.63;;
2257;SDS011;1136;51.574;7.706;2023-09-19T13:19:37;4.60;;;2.40;;
2257;SDS011;1136;51.574;7.706;2023-09-19T13:22:56;2.63;;;2.10;;
2257;SDS011;1136;51.574;7.706;2023-09-19T13:26:10;8.37;;;2.53;;
2257;SDS011;1136;51.574;7.706;2023-09-19T13:29:15;5.63;;;2.60;;
2257;SDS011;1136;51.574;7.706;2023-09-19T13:32:22;5.37;;;2.30;;
2257;SDS011;1136;51.574;7.706;2023-09-19T13:35:26;3.60;;;2.40;;
2257;SDS011;1136;51.574;7.706;2023-09-19T13:38:30;6.47;;;2.77;;
2257;SDS011;1136;51.574;7.706;2023-09-19T13:41:35;7.00;;;2.77;;
2257;SDS011;1136;51.574;7.706;2023-09-19T13:44:42;2.97;;;2.00;;
2257;SDS011;1136;51.574;7.706;2023-09-19T13:47:47;6.30;;;2.40;;
2257;SDS011;1136;51.574;7.706;2023-09-19T13:50:51;4.70;;;2.00;;
2257;SDS011;1136;51.574;7.706;2023-09-19T13:53:55;5.77;;;2.30;;
2257;SDS011;1136;51.574;7.706;2023-09-19T13:57:00;6.07;;;2.50;;
2257;SDS011;1136;51.574;7.706;2023-09-19T14:00:04;6.50;;;2.40;;
2257;SDS011;1136;51.574;7.706;2023-09-19T14:03:09;4.53;;;2.53;;
2257;SDS011;1136;51.574;7.706;2023-09-19T14:06:15;4.30;;;2.27;;
2257;SDS011;1136;51.574;7.706;2023-09-19T14:09:21;5.70;;;2.27;;
2257;SDS011;1136;51.574;7.706;2023-09-19T14:12:27;3.43;;;2.10;;
2257;SDS011;1136;51.574;7.706;2023-09-19T14:15:31;7.33;;;2.20;;
2257;SDS011;1136;51.574;7.706;2023-09-19T14:18:36;1.90;;;1.67;;
2257;SDS011;1136;51.574;7.706;2023-09-19T14:21:40;3.67;;;1.90;;
2257;SDS011;1136;51.574;7.706;2023-09-19T14:24:44;3.80;;;2.00;;
2257;SDS011;1136;51.574;7.706;2023-09-19T14:27:48;5.40;;;2.40;;
2257;SDS011;1136;51.574;7.706;2023-09-19T14:30:53;2.50;;;1.73;;
2257;SDS011;1136;51.574;7.706;2023-09-19T14:33:57;4.80;;;1.50;;
2257;SDS011;1136;51.574;7.706;2023-09-19T14:37:03;6.20;;;2.30;;
2257;SDS011;1136;51.574;7.706;2023-09-19T14:40:08;3.77;;;1.70;;
2257;SDS011;1136;51.574;7.706;2023-09-19T14:43:13;3.20;;;1.80;;
2257;SDS011;1136;51.574;7.706;2023-09-19T14:46:21;3.00;;;1.60;;
2257;SDS011;1136;51.574;7.706;2023-09-19T14:49:28;2.33;;;1.47;;
2257;SDS011;1136;51.574;7.706;2023-09-19T14:52:32;2.27;;;1.33;;
2257;SDS011;1136;51.574;7.706;2023-09-19T14:55:38;3.97;;;1.77;;
2257;SDS011;1136;51.574;7.706;2023-09-19T14:58:45;2.33;;;1.90;;
2257;SDS011;1136;51.574;7.706;2023-09-19T15:01:50;4.80;;;1.90;;
2257;SDS011;1136;51.574;7.706;2023-09-19T15:04:54;7.50;;;1.90;;
2257;SDS011;1136;51.574;7.706;2023-09-19T15:07:59;1.40;;;1.30;;
2257;SDS011;1136;51.574;7.706;2023-09-19T15:11:07;3.40;;;2.27;;
2257;SDS011;1136;51.574;7.706;2023-09-19T15:14:11;4.77;;;1.77;;
2257;SDS011;1136;51.574;7.706;2023-09-19T15:17:15;3.83;;;1.67;;
2257;SDS011;1136;51.574;7.706;2023-09-19T15:20:20;3.80;;;1.50;;
2257;SDS011;1136;51.574;7.706;2023-09-19T15:23:24;5.90;;;1.40;;
2257;SDS011;1136;51.574;7.706;2023-09-19T15:26:35;2.60;;;1.20;;
2257;SDS011;1136;51.574;7.706;2023-09-19T15:29:43;2.47;;;1.13;;
2257;SDS011;1136;51.574;7.706;2023-09-19T15:32:47;4.20;;;1.50;;
2257;SDS011;1136;51.574;7.706;2023-09-19T15:35:59;3.07;;;1.27;;
2257;SDS011;1136;51.574;7.706;2023-09-19T15:39:13;3.60;;;1.37;;
2257;SDS011;1136;51.574;7.706;2023-09-19T15:42:19;3.50;;;1.20;;
2257;SDS011;1136;51.574;7.706;2023-09-19T15:45:23;1.67;;;1.10;;
2257;SDS011;1136;51.574;7.706;2023-09-19T15:48:29;4.60;;;1.60;;
2257;SDS011;1136;51.574;7.706;2023-09-19T15:51:34;2.73;;;1.30;;
2257;SDS011;1136;51.574;7.706;2023-09-19T15:54:39;1.53;;;1.40;;
2257;SDS011;1136;51.574;7.706;2023-09-19T15:57:48;5.50;;;1.80;;
2257;SDS011;1136;51.574;7.706;2023-09-19T16:00:52;1.83;;;1.20;;
2257;SDS011;1136;51.574;7.706;2023-09-19T16:03:57;2.30;;;1.27;;
2257;SDS011;1136;51.574;7.706;2023-09-19T16:07:02;2.17;;;1.10;;
2257;SDS011;1136;51.574;7.706;2023-09-19T16:10:06;2.17;;;1.80;;
2257;SDS011;1136;51.574;7.706;2023-09-19T16:13:11;3.67;;;1.50;;
2257;SDS011;1136;51.574;7.706;2023-09-19T16:16:17;5.63;;;1.37;;
2257;SDS011;1136;51.574;7.706;2023-09-19T16:19:23;2.00;;;1.57;;
2257;SDS011;1136;51.574;7.706;2023-09-19T16:22:28;2.77;;;1.33;;
2257;SDS011;1136;51.574;7.706;2023-09-19T16:25:32;2.70;;;1.30;;
2257;SDS011;1136;51.574;7.706;2023-09-19T16:28:36;5.47;;;1.37;;
2257;SDS011;1136;51.574;7.706;2023-09-19T16:31:41;5.63;;;1.60;;
2257;SDS011;1136;51.574;7.706;2023-09-19T16:34:45;1.93;;;1.70;;
2257;SDS011;1136;51.574;7.706;2023-09-19T16:37:50;3.37;;;1.77;;
2257;SDS011;1136;51.574;7.706;2023-09-19T16:40:55;3.47;;;2.13;;
2257;SDS011;1136;51.574;7.706;2023-09-19T16:44:00;2.57;;;1.60;;
2257;SDS011;1136;51.574;7.706;2023-09-19T16:47:05;4.40;;;1.77;;
2257;SDS011;1136;51.574;7.706;2023-09-19T16:50:09;2.60;;;1.30;;
2257;SDS011;1136;51.574;7.706;2023-09-19T16:53:14;2.70;;;1.37;;
2257;SDS011;1136;51.574;7.706;2023-09-19T16:56:21;2.07;;;1.50;;
2257;SDS011;1136;51.574;7.706;2023-09-19T16:59:25;1.57;;;1.10;;
2257;SDS011;1136;51.574;7.706;2023-09-19T17:02:29;3.20;;;1.60;;
2257;SDS011;1136;51.574;7.706;2023-09-19T17:05:35;5.07;;;1.50;;
2257;SDS011;1136;51.574;7.706;2023-09-19T17:08:44;2.47;;;1.20;;
2257;SDS011;1136;51.574;7.706;2023-09-19T17:11:48;3.00;;;1.70;;
2257;SDS011;1136;51.574;7.706;2023-09-19T17:14:53;3.70;;;1.30;;
2257;SDS011;1136;51.574;7.706;2023-09-19T17:17:59;2.40;;;1.10;;
2257;SDS011;1136;51.574;7.706;2023-09-19T17:21:04;2.00;;;1.47;;
2257;SDS011;1136;51.574;7.706;2023-09-19T17:24:10;1.73;;;1.30;;
2257;SDS011;1136;51.574;7.706;2023-09-19T17:27:17;3.37;;;1.60;;
2257;SDS011;1136;51.574;7.706;2023-09-19T17:30:21;2.73;;;1.63;;
2257;SDS011;1136;51.574;7.706;2023-09-19T17:33:26;2.00;;;1.20;;
2257;SDS011;1136;51.574;7.706;2023-09-19T17:36:31;1.73;;;1.03;;
2257;SDS011;1136;51.574;7.706;2023-09-19T17:39:35;2.50;;;1.03;;
2257;SDS011;1136;51.574;7.706;2023-09-19T17:42:40;3.77;;;1.60;;
2257;SDS011;1136;51.574;7.706;2023-09-19T17:45:46;4.70;;;1.70;;
2257;SDS011;1136;51.574;7.706;2023-09-19T17:48:52;1.87;;;1.63;;
2257;SDS011;1136;51.574;7.706;2023-09-19T17:51:57;4.97;;;1.80;;
2257;SDS011;1136;51.574;7.706;2023-09-19T17:55:01;4.90;;;1.70;;
2257;SDS011;1136;51.574;7.706;2023-09-19T17:58:05;1.87;;;1.67;;
2257;SDS011;1136;51.574;7.706;2023-09-19T18:04:23;2.90;;;1.73;;
2257;SDS011;1136;51.574;7.706;2023-09-19T18:07:27;2.53;;;1.50;;
2257;SDS011;1136;51.574;7.706;2023-09-19T18:10:36;4.83;;;1.80;;
2257;SDS011;1136;51.574;7.706;2023-09-19T18:13:42;3.13;;;1.80;;
2257;SDS011;1136;51.574;7.706;2023-09-19T18:16:47;1.30;;;1.20;;
2257;SDS011;1136;51.574;7.706;2023-09-19T18:19:51;3.10;;;1.50;;
2257;SDS011;1136;51.574;7.706;2023-09-19T18:22:56;2.97;;;1.43;;
2257;SDS011;1136;51.574;7.706;2023-09-19T18:26:04;2.70;;;1.47;;
2257;SDS011;1136;51.574;7.706;2023-09-19T18:29:17;4.37;;;1.57;;
2257;SDS011;1136;51.574;7.706;2023-09-19T18:32:25;2.33;;;1.53;;
2257;SDS011;1136;51.574;7.706;2023-09-19T18:35:32;1.93;;;1.77;;
2257;SDS011;1136;51.574;7.706;2023-09-19T18:38:38;5.53;;;1.67;;
2257;SDS011;1136;51.574;7.706;2023-09-19T18:41:50;2.00;;;1.60;;
2257;SDS011;1136;51.574;7.706;2023-09-19T18:44:58;4.93;;;1.43;;
2257;SDS011;1136;51.574;7.706;2023-09-19T18:48:06;3.30;;;1.83;;
2257;SDS011;1136;51.574;7.706;2023-09-19T18:51:11;2.47;;;1.60;;
2257;SDS011;1136;51.574;7.706;2023-09-19T18:54:20;5.37;;;1.90;;
2257;SDS011;1136;51.574;7.706;2023-09-19T18:57:25;2.13;;;1.93;;
2257;SDS011;1136;51.574;7.706;2023-09-19T19:00:30;4.33;;;1.80;;
2257;SDS011;1136;51.574;7.706;2023-09-19T19:03:35;3.00;;;2.00;;
2257;SDS011;1136;51.574;7.706;2023-09-19T19:06:40;2.60;;;1.90;;
2257;SDS011;1136;51.574;7.706;2023-09-19T19:09:47;2.60;;;2.40;;
2257;SDS011;1136;51.574;7.706;2023-09-19T19:12:52;6.40;;;1.83;;
2257;SDS011;1136;51.574;7.706;2023-09-19T19:15:59;4.97;;;2.17;;
2257;SDS011;1136;51.574;7.706;2023-09-19T19:19:05;2.70;;;1.57;;
2257;SDS011;1136;51.574;7.706;2023-09-19T19:22:12;2.97;;;1.40;;
2257;SDS011;1136;51.574;7.706;2023-09-19T19:25:17;2.83;;;2.00;;
2257;SDS011;1136;51.574;7.706;2023-09-19T19:28:23;1.77;;;1.60;;
2257;SDS011;1136;51.574;7.706;2023-09-19T19:31:29;3.60;;;1.63;;
2257;SDS011;1136;51.574;7.706;2023-09-19T19:34:39;3.80;;;2.20;;
2257;SDS011;1136;51.574;7.706;2023-09-19T19:37:44;5.53;;;2.00;;
2257;SDS011;1136;51.574;7.706;2023-09-19T19:40:56;5.83;;;2.37;;
2257;SDS011;1136;51.574;7.706;2023-09-19T19:44:02;2.90;;;1.90;;
2257;SDS011;1136;51.574;7.706;2023-09-19T19:47:07;3.13;;;1.97;;
2257;SDS011;1136;51.574;7.706;2023-09-19T19:50:12;3.83;;;2.00;;
2257;SDS011;1136;51.574;7.706;2023-09-19T19:53:18;2.93;;;2.23;;
2257;SDS011;1136;51.574;7.706;2023-09-19T19:56:22;5.20;;;1.90;;
2257;SDS011;1136;51.574;7.706;2023-09-19T19:59:27;2.60;;;1.77;;
2257;SDS011;1136;51.574;7.706;2023-09-19T20:02:32;2.60;;;1.87;;
2257;SDS011;1136;51.574;7.706;2023-09-19T20:05:38;3.73;;;1.83;;
2257;SDS011;1136;51.574;7.706;2023-09-19T20:08:43;2.23;;;1.90;;
2257;SDS011;1136;51.574;7.706;2023-09-19T20:11:47;3.10;;;1.80;;